sensor_id;sensor_type;location;lat;lon;timestamp;temperature;humidity
39089;DHT22;24837;48.024;8.534;2022-07-23T00:01:24;20.50;80.20
39089;DHT22;24837;48.024;8.534;2022-07-23T00:03:50;20.50;80.10
39089;DHT22;24837;48.024;8.534;2022-07-23T00:06:17;20.50;79.70
39089;DHT22;24837;48.024;8.534;2022-07-23T00:08:43;20.50;79.50
39089;DHT22;24837;48.024;8.534;2022-07-23T00:11:08;20.40;79.90
39089;DHT22;24837;48.024;8.534;2022-07-23T00:13:34;20.40;80.30
39089;DHT22;24837;48.024;8.534;2022-07-23T00:15:59;20.40;80.60
39089;DHT22;24837;48.024;8.534;2022-07-23T00:18:25;20.40;80.70
39089;DHT22;24837;48.024;8.534;2022-07-23T00:20:51;20.30;80.90
39089;DHT22;24837;48.024;8.534;2022-07-23T00:23:16;20.20;80.90
39089;DHT22;24837;48.024;8.534;2022-07-23T00:25:42;20.20;80.80
39089;DHT22;24837;48.024;8.534;2022-07-23T00:28:08;20.20;80.80
39089;DHT22;24837;48.024;8.534;2022-07-23T00:30:33;20.10;80.60
39089;DHT22;24837;48.024;8.534;2022-07-23T00:33:02;20.10;80.90
39089;DHT22;24837;48.024;8.534;2022-07-23T00:37:56;20.10;80.90
39089;DHT22;24837;48.024;8.534;2022-07-23T00:40:22;20.00;81.50
39089;DHT22;24837;48.024;8.534;2022-07-23T00:45:14;19.90;81.20
39089;DHT22;24837;48.024;8.534;2022-07-23T00:47:40;19.90;81.80
39089;DHT22;24837;48.024;8.534;2022-07-23T00:50:08;19.90;82.00
39089;DHT22;24837;48.024;8.534;2022-07-23T00:52:35;19.90;82.10
39089;DHT22;24837;48.024;8.534;2022-07-23T00:55:01;19.90;82.10
39089;DHT22;24837;48.024;8.534;2022-07-23T00:57:27;19.90;82.30
39089;DHT22;24837;48.024;8.534;2022-07-23T00:59:52;19.90;82.50
39089;DHT22;24837;48.024;8.534;2022-07-23T01:02:18;19.90;83.10
39089;DHT22;24837;48.024;8.534;2022-07-23T01:04:44;19.90;83.10
39089;DHT22;24837;48.024;8.534;2022-07-23T01:07:10;19.90;83.20
39089;DHT22;24837;48.024;8.534;2022-07-23T01:09:36;19.80;83.40
39089;DHT22;24837;48.024;8.534;2022-07-23T01:12:03;19.90;83.70
39089;DHT22;24837;48.024;8.534;2022-07-23T01:14:28;19.90;84.00
39089;DHT22;24837;48.024;8.534;2022-07-23T01:16:54;19.80;84.00
39089;DHT22;24837;48.024;8.534;2022-07-23T01:19:19;19.80;84.00
39089;DHT22;24837;48.024;8.534;2022-07-23T01:21:48;19.80;84.20
39089;DHT22;24837;48.024;8.534;2022-07-23T01:24:14;19.80;84.40
39089;DHT22;24837;48.024;8.534;2022-07-23T01:26:45;19.80;84.50
39089;DHT22;24837;48.024;8.534;2022-07-23T01:29:12;19.70;84.40
39089;DHT22;24837;48.024;8.534;2022-07-23T01:31:37;19.70;84.70
39089;DHT22;24837;48.024;8.534;2022-07-23T01:34:03;19.70;85.10
39089;DHT22;24837;48.024;8.534;2022-07-23T01:36:29;19.70;85.10
39089;DHT22;24837;48.024;8.534;2022-07-23T01:41:21;19.70;85.00
39089;DHT22;24837;48.024;8.534;2022-07-23T01:46:13;19.70;85.60
39089;DHT22;24837;48.024;8.534;2022-07-23T01:51:05;19.60;86.20
39089;DHT22;24837;48.024;8.534;2022-07-23T01:53:30;19.60;86.80
39089;DHT22;24837;48.024;8.534;2022-07-23T01:55:59;19.50;86.70
39089;DHT22;24837;48.024;8.534;2022-07-23T01:58:26;19.50;87.10
39089;DHT22;24837;48.024;8.534;2022-07-23T02:00:53;19.50;87.30
39089;DHT22;24837;48.024;8.534;2022-07-23T02:03:18;19.40;87.50
39089;DHT22;24837;48.024;8.534;2022-07-23T02:05:44;19.40;87.70
39089;DHT22;24837;48.024;8.534;2022-07-23T02:08:10;19.50;87.90
39089;DHT22;24837;48.024;8.534;2022-07-23T02:10:35;19.50;88.00
39089;DHT22;24837;48.024;8.534;2022-07-23T02:13:01;19.50;88.10
39089;DHT22;24837;48.024;8.534;2022-07-23T02:15:26;19.50;88.20
39089;DHT22;24837;48.024;8.534;2022-07-23T02:17:54;19.50;88.10
39089;DHT22;24837;48.024;8.534;2022-07-23T02:20:19;19.50;88.00
39089;DHT22;24837;48.024;8.534;2022-07-23T02:22:45;19.50;87.90
39089;DHT22;24837;48.024;8.534;2022-07-23T02:25:10;19.50;87.80
39089;DHT22;24837;48.024;8.534;2022-07-23T02:27:36;19.50;88.00
39089;DHT22;24837;48.024;8.534;2022-07-23T02:30:02;19.40;87.90
39089;DHT22;24837;48.024;8.534;2022-07-23T02:32:28;19.40;87.90
39089;DHT22;24837;48.024;8.534;2022-07-23T02:34:54;19.30;88.10
39089;DHT22;24837;48.024;8.534;2022-07-23T02:37:19;19.30;88.20
39089;DHT22;24837;48.024;8.534;2022-07-23T02:40:10;19.20;88.40
39089;DHT22;24837;48.024;8.534;2022-07-23T02:42:37;19.20;87.80
39089;DHT22;24837;48.024;8.534;2022-07-23T02:45:02;19.20;88.40
39089;DHT22;24837;48.024;8.534;2022-07-23T02:47:28;19.20;88.40
39089;DHT22;24837;48.024;8.534;2022-07-23T02:49:54;19.20;88.50
39089;DHT22;24837;48.024;8.534;2022-07-23T02:52:19;19.20;88.50
39089;DHT22;24837;48.024;8.534;2022-07-23T02:54:45;19.20;88.50
39089;DHT22;24837;48.024;8.534;2022-07-23T02:57:10;19.20;88.50
39089;DHT22;24837;48.024;8.534;2022-07-23T02:59:36;19.20;88.50
39089;DHT22;24837;48.024;8.534;2022-07-23T03:02:01;19.30;89.00
39089;DHT22;24837;48.024;8.534;2022-07-23T03:04:27;19.30;89.20
39089;DHT22;24837;48.024;8.534;2022-07-23T03:06:52;19.30;89.10
39089;DHT22;24837;48.024;8.534;2022-07-23T03:09:18;19.20;89.00
39089;DHT22;24837;48.024;8.534;2022-07-23T03:11:43;19.20;88.90
39089;DHT22;24837;48.024;8.534;2022-07-23T03:14:09;19.20;89.10
39089;DHT22;24837;48.024;8.534;2022-07-23T03:16:34;19.20;89.50
39089;DHT22;24837;48.024;8.534;2022-07-23T03:19:00;19.20;89.80
39089;DHT22;24837;48.024;8.534;2022-07-23T03:21:25;19.20;89.90
39089;DHT22;24837;48.024;8.534;2022-07-23T03:23:51;19.20;90.00
39089;DHT22;24837;48.024;8.534;2022-07-23T03:26:16;19.20;90.00
39089;DHT22;24837;48.024;8.534;2022-07-23T03:28:42;19.10;90.20
39089;DHT22;24837;48.024;8.534;2022-07-23T03:31:07;19.00;90.40
39089;DHT22;24837;48.024;8.534;2022-07-23T03:33:33;19.00;90.30
39089;DHT22;24837;48.024;8.534;2022-07-23T03:35:58;19.00;90.50
39089;DHT22;24837;48.024;8.534;2022-07-23T03:38:24;19.10;90.30
39089;DHT22;24837;48.024;8.534;2022-07-23T03:40:49;19.10;90.20
39089;DHT22;24837;48.024;8.534;2022-07-23T03:43:15;19.00;90.20
39089;DHT22;24837;48.024;8.534;2022-07-23T03:45:41;19.00;90.40
39089;DHT22;24837;48.024;8.534;2022-07-23T03:48:06;19.10;90.50
39089;DHT22;24837;48.024;8.534;2022-07-23T03:50:32;19.10;90.30
39089;DHT22;24837;48.024;8.534;2022-07-23T03:52:57;19.10;90.30
39089;DHT22;24837;48.024;8.534;2022-07-23T03:55:23;19.10;90.20
39089;DHT22;24837;48.024;8.534;2022-07-23T03:57:48;19.10;90.10
39089;DHT22;24837;48.024;8.534;2022-07-23T04:00:14;19.10;90.10
39089;DHT22;24837;48.024;8.534;2022-07-23T04:02:40;19.10;90.20
39089;DHT22;24837;48.024;8.534;2022-07-23T04:05:06;19.10;90.20
39089;DHT22;24837;48.024;8.534;2022-07-23T04:07:32;19.10;90.20
39089;DHT22;24837;48.024;8.534;2022-07-23T04:09:58;19.00;90.30
39089;DHT22;24837;48.024;8.534;2022-07-23T04:12:24;19.00;90.40
39089;DHT22;24837;48.024;8.534;2022-07-23T04:14:49;18.90;90.50
39089;DHT22;24837;48.024;8.534;2022-07-23T04:17:15;18.90;90.70
39089;DHT22;24837;48.024;8.534;2022-07-23T04:19:41;19.00;90.80
39089;DHT22;24837;48.024;8.534;2022-07-23T04:22:09;18.90;90.80
39089;DHT22;24837;48.024;8.534;2022-07-23T04:24:35;18.90;90.80
39089;DHT22;24837;48.024;8.534;2022-07-23T04:27:01;18.90;90.80
39089;DHT22;24837;48.024;8.534;2022-07-23T04:29:27;18.90;90.80
39089;DHT22;24837;48.024;8.534;2022-07-23T04:31:53;18.90;90.80
39089;DHT22;24837;48.024;8.534;2022-07-23T04:34:18;18.90;90.70
39089;DHT22;24837;48.024;8.534;2022-07-23T04:36:44;18.90;90.70
39089;DHT22;24837;48.024;8.534;2022-07-23T04:39:09;18.90;90.70
39089;DHT22;24837;48.024;8.534;2022-07-23T04:41:35;18.90;90.60
39089;DHT22;24837;48.024;8.534;2022-07-23T04:44:01;18.90;90.70
39089;DHT22;24837;48.024;8.534;2022-07-23T04:46:27;18.90;90.70
39089;DHT22;24837;48.024;8.534;2022-07-23T04:48:53;18.90;90.70
39089;DHT22;24837;48.024;8.534;2022-07-23T04:51:18;18.90;90.60
39089;DHT22;24837;48.024;8.534;2022-07-23T04:53:44;18.90;90.70
39089;DHT22;24837;48.024;8.534;2022-07-23T04:56:10;18.90;90.70
39089;DHT22;24837;48.024;8.534;2022-07-23T04:58:35;18.90;90.70
39089;DHT22;24837;48.024;8.534;2022-07-23T05:01:01;18.90;90.70
39089;DHT22;24837;48.024;8.534;2022-07-23T05:03:26;18.90;90.70
39089;DHT22;24837;48.024;8.534;2022-07-23T05:05:52;18.90;90.70
39089;DHT22;24837;48.024;8.534;2022-07-23T05:08:18;18.90;90.60
39089;DHT22;24837;48.024;8.534;2022-07-23T05:10:43;18.90;90.70
39089;DHT22;24837;48.024;8.534;2022-07-23T05:13:09;18.80;90.80
39089;DHT22;24837;48.024;8.534;2022-07-23T05:15:34;18.80;90.80
39089;DHT22;24837;48.024;8.534;2022-07-23T05:20:26;18.90;90.60
39089;DHT22;24837;48.024;8.534;2022-07-23T05:22:52;18.90;91.00
39089;DHT22;24837;48.024;8.534;2022-07-23T05:25:17;18.90;90.90
39089;DHT22;24837;48.024;8.534;2022-07-23T05:27:43;18.90;91.00
39089;DHT22;24837;48.024;8.534;2022-07-23T05:30:09;18.90;91.10
39089;DHT22;24837;48.024;8.534;2022-07-23T05:32:35;18.90;91.20
39089;DHT22;24837;48.024;8.534;2022-07-23T05:35:02;18.90;91.30
39089;DHT22;24837;48.024;8.534;2022-07-23T05:37:28;19.00;91.40
39089;DHT22;24837;48.024;8.534;2022-07-23T05:39:53;19.10;91.20
39089;DHT22;24837;48.024;8.534;2022-07-23T05:42:19;19.10;91.10
39089;DHT22;24837;48.024;8.534;2022-07-23T05:44:44;19.20;91.00
39089;DHT22;24837;48.024;8.534;2022-07-23T05:47:10;19.30;91.10
39089;DHT22;24837;48.024;8.534;2022-07-23T05:49:37;19.40;91.10
39089;DHT22;24837;48.024;8.534;2022-07-23T05:52:05;19.50;91.00
39089;DHT22;24837;48.024;8.534;2022-07-23T05:54:30;19.60;90.80
39089;DHT22;24837;48.024;8.534;2022-07-23T05:56:56;19.70;90.60
39089;DHT22;24837;48.024;8.534;2022-07-23T05:59:21;19.80;90.50
39089;DHT22;24837;48.024;8.534;2022-07-23T06:01:47;19.90;90.40
39089;DHT22;24837;48.024;8.534;2022-07-23T06:04:13;20.10;90.30
39089;DHT22;24837;48.024;8.534;2022-07-23T06:06:38;20.20;90.20
39089;DHT22;24837;48.024;8.534;2022-07-23T06:09:04;20.30;89.90
39089;DHT22;24837;48.024;8.534;2022-07-23T06:11:29;20.40;89.00
39089;DHT22;24837;48.024;8.534;2022-07-23T06:16:21;20.60;87.50
39089;DHT22;24837;48.024;8.534;2022-07-23T06:18:46;20.60;87.60
39089;DHT22;24837;48.024;8.534;2022-07-23T06:21:12;20.70;87.50
39089;DHT22;24837;48.024;8.534;2022-07-23T06:23:37;20.80;86.40
39089;DHT22;24837;48.024;8.534;2022-07-23T06:33:21;21.10;84.80
39089;DHT22;24837;48.024;8.534;2022-07-23T06:35:46;21.20;85.10
39089;DHT22;24837;48.024;8.534;2022-07-23T06:38:12;21.30;85.00
39089;DHT22;24837;48.024;8.534;2022-07-23T06:43:04;21.50;83.70
39089;DHT22;24837;48.024;8.534;2022-07-23T06:45:29;21.50;84.60
39089;DHT22;24837;48.024;8.534;2022-07-23T06:47:55;21.60;84.80
39089;DHT22;24837;48.024;8.534;2022-07-23T06:50:21;21.60;85.20
39089;DHT22;24837;48.024;8.534;2022-07-23T06:52:46;21.60;84.40
39089;DHT22;24837;48.024;8.534;2022-07-23T06:55:12;21.60;85.00
39089;DHT22;24837;48.024;8.534;2022-07-23T06:57:38;21.70;84.80
39089;DHT22;24837;48.024;8.534;2022-07-23T07:00:04;21.60;82.80
39089;DHT22;24837;48.024;8.534;2022-07-23T07:02:30;21.60;82.60
39089;DHT22;24837;48.024;8.534;2022-07-23T07:04:56;21.60;82.10
39089;DHT22;24837;48.024;8.534;2022-07-23T07:07:21;21.70;82.10
39089;DHT22;24837;48.024;8.534;2022-07-23T07:12:13;21.90;81.10
39089;DHT22;24837;48.024;8.534;2022-07-23T07:17:04;22.10;79.90
39089;DHT22;24837;48.024;8.534;2022-07-23T07:19:30;22.10;80.40
39089;DHT22;24837;48.024;8.534;2022-07-23T07:21:55;22.20;80.30
39089;DHT22;24837;48.024;8.534;2022-07-23T07:24:21;22.20;79.60
39089;DHT22;24837;48.024;8.534;2022-07-23T07:26:47;22.20;79.20
39089;DHT22;24837;48.024;8.534;2022-07-23T07:29:12;22.20;78.90
39089;DHT22;24837;48.024;8.534;2022-07-23T07:31:38;22.20;78.80
39089;DHT22;24837;48.024;8.534;2022-07-23T07:34:03;22.20;78.90
39089;DHT22;24837;48.024;8.534;2022-07-23T07:38:55;22.50;78.40
39089;DHT22;24837;48.024;8.534;2022-07-23T07:41:20;22.50;78.70
39089;DHT22;24837;48.024;8.534;2022-07-23T07:43:49;22.60;78.40
39089;DHT22;24837;48.024;8.534;2022-07-23T07:46:15;22.70;78.00
39089;DHT22;24837;48.024;8.534;2022-07-23T07:48:41;22.60;76.60
39089;DHT22;24837;48.024;8.534;2022-07-23T07:51:06;22.40;76.40
39089;DHT22;24837;48.024;8.534;2022-07-23T07:53:32;22.30;76.30
39089;DHT22;24837;48.024;8.534;2022-07-23T07:55:58;22.20;76.60
39089;DHT22;24837;48.024;8.534;2022-07-23T07:58:23;22.20;77.10
39089;DHT22;24837;48.024;8.534;2022-07-23T08:00:49;22.20;77.80
39089;DHT22;24837;48.024;8.534;2022-07-23T08:03:14;22.20;77.80
39089;DHT22;24837;48.024;8.534;2022-07-23T08:05:40;22.20;78.20
39089;DHT22;24837;48.024;8.534;2022-07-23T08:08:05;22.20;78.20
39089;DHT22;24837;48.024;8.534;2022-07-23T08:10:31;22.30;78.00
39089;DHT22;24837;48.024;8.534;2022-07-23T08:12:58;22.40;78.00
39089;DHT22;24837;48.024;8.534;2022-07-23T08:15:26;22.50;78.20
39089;DHT22;24837;48.024;8.534;2022-07-23T08:20:21;22.70;77.10
39089;DHT22;24837;48.024;8.534;2022-07-23T08:23:04;22.80;77.70
39089;DHT22;24837;48.024;8.534;2022-07-23T08:25:31;23.00;77.20
39089;DHT22;24837;48.024;8.534;2022-07-23T08:27:59;23.20;76.60
39089;DHT22;24837;48.024;8.534;2022-07-23T08:30:25;23.20;76.20
39089;DHT22;24837;48.024;8.534;2022-07-23T08:35:30;23.20;75.70
39089;DHT22;24837;48.024;8.534;2022-07-23T08:37:56;23.20;75.60
39089;DHT22;24837;48.024;8.534;2022-07-23T08:40:24;23.30;75.60
39089;DHT22;24837;48.024;8.534;2022-07-23T08:42:51;23.30;75.40
39089;DHT22;24837;48.024;8.534;2022-07-23T08:45:18;23.40;75.20
39089;DHT22;24837;48.024;8.534;2022-07-23T08:47:48;23.40;74.70
39089;DHT22;24837;48.024;8.534;2022-07-23T08:50:14;23.40;75.00
39089;DHT22;24837;48.024;8.534;2022-07-23T08:52:40;23.50;74.80
39089;DHT22;24837;48.024;8.534;2022-07-23T08:55:07;23.50;74.60
39089;DHT22;24837;48.024;8.534;2022-07-23T08:59:59;23.80;90.30
39089;DHT22;24837;48.024;8.534;2022-07-23T09:02:24;23.90;74.60
39089;DHT22;24837;48.024;8.534;2022-07-23T09:04:50;24.10;74.10
39089;DHT22;24837;48.024;8.534;2022-07-23T09:09:41;24.40;79.60
39089;DHT22;24837;48.024;8.534;2022-07-23T09:12:09;24.40;72.10
39089;DHT22;24837;48.024;8.534;2022-07-23T09:14:42;24.50;73.10
39089;DHT22;24837;48.024;8.534;2022-07-23T09:17:17;24.70;71.80
39089;DHT22;24837;48.024;8.534;2022-07-23T09:19:44;24.80;71.80
39089;DHT22;24837;48.024;8.534;2022-07-23T09:22:24;24.90;71.10
39089;DHT22;24837;48.024;8.534;2022-07-23T09:30:18;25.40;89.10
39089;DHT22;24837;48.024;8.534;2022-07-23T09:32:44;25.40;77.50
39089;DHT22;24837;48.024;8.534;2022-07-23T09:35:55;25.40;80.80
39089;DHT22;24837;48.024;8.534;2022-07-23T09:38:23;25.20;78.40
39089;DHT22;24837;48.024;8.534;2022-07-23T09:41:08;25.20;78.90
39089;DHT22;24837;48.024;8.534;2022-07-23T09:43:34;25.20;80.40
39089;DHT22;24837;48.024;8.534;2022-07-23T09:46:19;25.30;80.00
39089;DHT22;24837;48.024;8.534;2022-07-23T09:51:12;25.80;95.50
39089;DHT22;24837;48.024;8.534;2022-07-23T09:56:06;26.10;77.90
39089;DHT22;24837;48.024;8.534;2022-07-23T10:00:59;26.30;67.50
39089;DHT22;24837;48.024;8.534;2022-07-23T10:05:52;26.90;65.80
39089;DHT22;24837;48.024;8.534;2022-07-23T10:08:19;27.30;64.60
39089;DHT22;24837;48.024;8.534;2022-07-23T10:10:46;27.40;63.60
39089;DHT22;24837;48.024;8.534;2022-07-23T10:13:12;27.70;73.80
39089;DHT22;24837;48.024;8.534;2022-07-23T10:15:57;27.80;70.80
39089;DHT22;24837;48.024;8.534;2022-07-23T10:18:23;27.90;61.20
39089;DHT22;24837;48.024;8.534;2022-07-23T10:20:49;28.00;60.50
39089;DHT22;24837;48.024;8.534;2022-07-23T10:23:26;28.10;59.80
39089;DHT22;24837;48.024;8.534;2022-07-23T10:34:40;28.70;58.30
39089;DHT22;24837;48.024;8.534;2022-07-23T10:37:22;28.80;58.90
39089;DHT22;24837;48.024;8.534;2022-07-23T10:40:20;28.90;58.30
39089;DHT22;24837;48.024;8.534;2022-07-23T10:45:46;29.00;57.20
39089;DHT22;24837;48.024;8.534;2022-07-23T10:48:23;29.10;58.00
39089;DHT22;24837;48.024;8.534;2022-07-23T10:51:12;29.00;57.40
39089;DHT22;24837;48.024;8.534;2022-07-23T10:58:47;28.50;61.10
39089;DHT22;24837;48.024;8.534;2022-07-23T11:01:36;28.20;57.60
39089;DHT22;24837;48.024;8.534;2022-07-23T11:04:03;28.00;58.00
39089;DHT22;24837;48.024;8.534;2022-07-23T11:09:30;27.70;59.00
39089;DHT22;24837;48.024;8.534;2022-07-23T11:25:09;27.80;60.50
39089;DHT22;24837;48.024;8.534;2022-07-23T11:27:45;27.80;60.10
39089;DHT22;24837;48.024;8.534;2022-07-23T11:32:53;27.80;59.80
39089;DHT22;24837;48.024;8.534;2022-07-23T11:35:23;27.80;59.80
39089;DHT22;24837;48.024;8.534;2022-07-23T11:37:52;27.80;59.80
39089;DHT22;24837;48.024;8.534;2022-07-23T11:40:24;27.80;59.70
39089;DHT22;24837;48.024;8.534;2022-07-23T11:43:07;27.90;59.60
39089;DHT22;24837;48.024;8.534;2022-07-23T11:45:38;27.90;59.50
39089;DHT22;24837;48.024;8.534;2022-07-23T11:48:07;27.90;59.30
39089;DHT22;24837;48.024;8.534;2022-07-23T11:50:34;28.00;59.60
39089;DHT22;24837;48.024;8.534;2022-07-23T11:53:00;28.00;60.00
39089;DHT22;24837;48.024;8.534;2022-07-23T11:55:25;28.00;59.00
39089;DHT22;24837;48.024;8.534;2022-07-23T11:57:53;28.00;58.30
39089;DHT22;24837;48.024;8.534;2022-07-23T12:00:22;28.00;58.60
39089;DHT22;24837;48.024;8.534;2022-07-23T12:02:51;28.10;59.00
39089;DHT22;24837;48.024;8.534;2022-07-23T12:05:19;28.10;58.90
39089;DHT22;24837;48.024;8.534;2022-07-23T12:07:47;28.10;59.00
39089;DHT22;24837;48.024;8.534;2022-07-23T12:10:19;28.00;59.40
39089;DHT22;24837;48.024;8.534;2022-07-23T12:15:39;27.80;60.00
39089;DHT22;24837;48.024;8.534;2022-07-23T12:18:07;27.70;60.40
39089;DHT22;24837;48.024;8.534;2022-07-23T12:20:40;27.90;60.60
39089;DHT22;24837;48.024;8.534;2022-07-23T12:23:07;28.10;60.60
39089;DHT22;24837;48.024;8.534;2022-07-23T12:30:41;28.90;68.70
39089;DHT22;24837;48.024;8.534;2022-07-23T12:33:09;28.90;69.60
39089;DHT22;24837;48.024;8.534;2022-07-23T12:35:39;28.90;72.30
39089;DHT22;24837;48.024;8.534;2022-07-23T12:38:18;28.80;72.60
39089;DHT22;24837;48.024;8.534;2022-07-23T12:43:36;28.90;71.70
39089;DHT22;24837;48.024;8.534;2022-07-23T12:51:21;29.20;57.10
39089;DHT22;24837;48.024;8.534;2022-07-23T12:53:52;29.20;56.10
39089;DHT22;24837;48.024;8.534;2022-07-23T12:56:29;29.20;55.80
39089;DHT22;24837;48.024;8.534;2022-07-23T12:59:15;29.10;55.50
39089;DHT22;24837;48.024;8.534;2022-07-23T13:01:52;29.10;55.50
39089;DHT22;24837;48.024;8.534;2022-07-23T13:09:18;29.30;82.50
39089;DHT22;24837;48.024;8.534;2022-07-23T13:11:44;29.10;55.60
39089;DHT22;24837;48.024;8.534;2022-07-23T13:14:11;29.00;55.40
39089;DHT22;24837;48.024;8.534;2022-07-23T13:16:36;28.90;55.50
39089;DHT22;24837;48.024;8.534;2022-07-23T13:19:02;29.00;55.40
39089;DHT22;24837;48.024;8.534;2022-07-23T13:31:16;31.60;85.20
39089;DHT22;24837;48.024;8.534;2022-07-23T13:36:08;32.20;48.80
39089;DHT22;24837;48.024;8.534;2022-07-23T13:45:52;35.40;42.20
39089;DHT22;24837;48.024;8.534;2022-07-23T14:17:38;31.00;56.70
39089;DHT22;24837;48.024;8.534;2022-07-23T14:24:57;29.90;84.80
39089;DHT22;24837;48.024;8.534;2022-07-23T14:34:44;29.50;42.40
39089;DHT22;24837;48.024;8.534;2022-07-23T15:21:01;30.50;58.40
39089;DHT22;24837;48.024;8.534;2022-07-23T15:23:26;30.40;39.40
39089;DHT22;24837;48.024;8.534;2022-07-23T15:25:54;30.20;39.60
39089;DHT22;24837;48.024;8.534;2022-07-23T15:28:20;30.10;40.00
39089;DHT22;24837;48.024;8.534;2022-07-23T15:30:45;30.10;40.10
39089;DHT22;24837;48.024;8.534;2022-07-23T15:33:11;30.20;40.50
39089;DHT22;24837;48.024;8.534;2022-07-23T15:35:36;30.40;39.60
39089;DHT22;24837;48.024;8.534;2022-07-23T15:38:02;30.40;39.90
39089;DHT22;24837;48.024;8.534;2022-07-23T15:40:27;30.50;39.50
39089;DHT22;24837;48.024;8.534;2022-07-23T15:42:53;30.50;39.80
39089;DHT22;24837;48.024;8.534;2022-07-23T15:45:18;30.50;40.40
39089;DHT22;24837;48.024;8.534;2022-07-23T15:47:44;30.50;40.30
39089;DHT22;24837;48.024;8.534;2022-07-23T15:50:11;30.60;40.50
39089;DHT22;24837;48.024;8.534;2022-07-23T15:52:37;30.60;40.70
39089;DHT22;24837;48.024;8.534;2022-07-23T15:55:03;30.60;40.80
39089;DHT22;24837;48.024;8.534;2022-07-23T15:57:29;30.50;40.40
39089;DHT22;24837;48.024;8.534;2022-07-23T15:59:54;30.40;50.40
39089;DHT22;24837;48.024;8.534;2022-07-23T16:07:16;30.80;71.80
39089;DHT22;24837;48.024;8.534;2022-07-23T16:17:00;29.50;75.90
39089;DHT22;24837;48.024;8.534;2022-07-23T16:19:26;29.30;42.00
39089;DHT22;24837;48.024;8.534;2022-07-23T16:24:17;29.10;42.80
39089;DHT22;24837;48.024;8.534;2022-07-23T16:29:09;29.30;43.20
39089;DHT22;24837;48.024;8.534;2022-07-23T16:31:34;29.60;43.30
39089;DHT22;24837;48.024;8.534;2022-07-23T16:36:27;30.10;50.30
39089;DHT22;24837;48.024;8.534;2022-07-23T16:38:52;30.10;42.80
39089;DHT22;24837;48.024;8.534;2022-07-23T16:43:44;30.40;58.50
39089;DHT22;24837;48.024;8.534;2022-07-23T16:48:37;30.00;67.30
39089;DHT22;24837;48.024;8.534;2022-07-23T16:51:03;29.90;40.70
39089;DHT22;24837;48.024;8.534;2022-07-23T16:55:55;29.80;79.20
39089;DHT22;24837;48.024;8.534;2022-07-23T16:58:21;29.60;40.80
39089;DHT22;24837;48.024;8.534;2022-07-23T17:00:47;29.60;41.50
39089;DHT22;24837;48.024;8.534;2022-07-23T17:03:12;29.60;41.60
39089;DHT22;24837;48.024;8.534;2022-07-23T17:05:38;29.70;40.70
39089;DHT22;24837;48.024;8.534;2022-07-23T17:08:04;29.70;40.50
39089;DHT22;24837;48.024;8.534;2022-07-23T17:10:29;29.60;40.70
39089;DHT22;24837;48.024;8.534;2022-07-23T17:15:23;29.50;62.70
39089;DHT22;24837;48.024;8.534;2022-07-23T17:17:48;29.30;42.00
39089;DHT22;24837;48.024;8.534;2022-07-23T17:20:14;29.20;42.30
39089;DHT22;24837;48.024;8.534;2022-07-23T17:22:40;29.10;42.50
39089;DHT22;24837;48.024;8.534;2022-07-23T17:25:08;29.00;43.20
39089;DHT22;24837;48.024;8.534;2022-07-23T17:30:04;28.80;42.50
39089;DHT22;24837;48.024;8.534;2022-07-23T17:32:30;28.70;44.10
39089;DHT22;24837;48.024;8.534;2022-07-23T17:34:56;28.80;43.80
39089;DHT22;24837;48.024;8.534;2022-07-23T17:37:21;28.80;44.00
39089;DHT22;24837;48.024;8.534;2022-07-23T17:47:05;29.80;55.60
39089;DHT22;24837;48.024;8.534;2022-07-23T17:49:30;30.00;57.50
39089;DHT22;24837;48.024;8.534;2022-07-23T17:56:48;30.50;81.50
39089;DHT22;24837;48.024;8.534;2022-07-23T17:59:14;30.50;42.30
39089;DHT22;24837;48.024;8.534;2022-07-23T18:04:07;30.70;74.00
39089;DHT22;24837;48.024;8.534;2022-07-23T18:11:28;30.40;41.10
39089;DHT22;24837;48.024;8.534;2022-07-23T18:13:53;30.40;42.20
39089;DHT22;24837;48.024;8.534;2022-07-23T18:16:19;30.20;42.40
39089;DHT22;24837;48.024;8.534;2022-07-23T18:21:10;29.90;41.40
39089;DHT22;24837;48.024;8.534;2022-07-23T18:23:38;29.70;42.30
39089;DHT22;24837;48.024;8.534;2022-07-23T18:26:03;29.40;42.00
39089;DHT22;24837;48.024;8.534;2022-07-23T18:28:29;29.20;42.30
39089;DHT22;24837;48.024;8.534;2022-07-23T18:30:54;29.00;42.70
39089;DHT22;24837;48.024;8.534;2022-07-23T18:40:38;28.30;43.20
39089;DHT22;24837;48.024;8.534;2022-07-23T18:45:31;27.90;44.10
39089;DHT22;24837;48.024;8.534;2022-07-23T18:47:56;27.80;45.10
39089;DHT22;24837;48.024;8.534;2022-07-23T18:50:22;27.70;45.20
39089;DHT22;24837;48.024;8.534;2022-07-23T18:52:47;27.60;45.30
39089;DHT22;24837;48.024;8.534;2022-07-23T19:00:07;27.30;85.90
39089;DHT22;24837;48.024;8.534;2022-07-23T19:09:51;27.00;89.20
39089;DHT22;24837;48.024;8.534;2022-07-23T19:31:46;26.00;54.10
39089;DHT22;24837;48.024;8.534;2022-07-23T19:34:12;25.80;51.00
39089;DHT22;24837;48.024;8.534;2022-07-23T19:36:37;25.60;51.60
39089;DHT22;24837;48.024;8.534;2022-07-23T19:39:03;25.40;52.20
39089;DHT22;24837;48.024;8.534;2022-07-23T19:41:29;25.20;52.60
39089;DHT22;24837;48.024;8.534;2022-07-23T21:02:17;20.70;62.30
39089;DHT22;24837;48.024;8.534;2022-07-23T21:04:42;20.30;61.70
39089;DHT22;24837;48.024;8.534;2022-07-23T21:12:00;20.20;65.80
39089;DHT22;24837;48.024;8.534;2022-07-23T21:14:26;20.20;67.10
39089;DHT22;24837;48.024;8.534;2022-07-23T21:16:52;20.20;67.80
39089;DHT22;24837;48.024;8.534;2022-07-23T21:19:17;20.20;68.10
39089;DHT22;24837;48.024;8.534;2022-07-23T21:21:43;20.30;71.00
39089;DHT22;24837;48.024;8.534;2022-07-23T21:24:08;20.20;68.30
39089;DHT22;24837;48.024;8.534;2022-07-23T21:26:34;20.20;69.10
39089;DHT22;24837;48.024;8.534;2022-07-23T21:29:01;20.20;68.60
39089;DHT22;24837;48.024;8.534;2022-07-23T21:31:30;20.20;68.80
39089;DHT22;24837;48.024;8.534;2022-07-23T21:33:56;20.20;69.20
39089;DHT22;24837;48.024;8.534;2022-07-23T21:36:21;20.20;69.50
39089;DHT22;24837;48.024;8.534;2022-07-23T21:38:47;20.10;69.40
39089;DHT22;24837;48.024;8.534;2022-07-23T21:41:12;20.10;69.40
39089;DHT22;24837;48.024;8.534;2022-07-23T21:43:38;20.10;69.50
39089;DHT22;24837;48.024;8.534;2022-07-23T21:46:04;20.10;69.60
39089;DHT22;24837;48.024;8.534;2022-07-23T21:48:29;20.00;69.80
39089;DHT22;24837;48.024;8.534;2022-07-23T21:50:55;20.00;70.20
39089;DHT22;24837;48.024;8.534;2022-07-23T21:53:20;19.90;70.50
39089;DHT22;24837;48.024;8.534;2022-07-23T21:55:46;19.90;70.80
39089;DHT22;24837;48.024;8.534;2022-07-23T21:58:12;19.90;71.20
39089;DHT22;24837;48.024;8.534;2022-07-23T22:00:38;19.80;71.10
39089;DHT22;24837;48.024;8.534;2022-07-23T22:03:04;19.80;71.30
39089;DHT22;24837;48.024;8.534;2022-07-23T22:05:30;19.80;71.50
39089;DHT22;24837;48.024;8.534;2022-07-23T22:07:57;19.70;71.40